Farson, WY (82932)

6:16 PM MDT on October 21, 2014 (GMT -0600)
Rock Springs-Sweetwater | Change Station
CLOSE
Current Station
Airport
Location: Rock Springs,
Elevation: 6759 ft
Nearby Weather Stations

Elev 6759 ft 41.59 °N, 109.05 °W | Updated 22 minutes ago

Partly Cloudy
Partly Cloudy
50 °F
Feels Like 50 °F
N
7
Wind Variable Wind from WNW

Today
High -- | Low -- °F
--% Chance of Precip.
Yesterday
High -- | Low -- °F
Precip. -- in
7:37 AM 6:26 PM
Waning Crescent, 4% visible
Pressure 29.87 in
Visibility 10.0 miles
Clouds Clear
Dew Point 43 °F
Humidity 77%
Rainfall 0.11 in
Snow Depth Not available.
UV 0 out of 12
Pollen 3.00 out of 12
Air Quality Not available.
Flu Activity Sporadic
METAR KRKS 212354Z AUTO 29006KT 10SM CLR 10/06 A3001 RMK AO2 SLP115 60011 T01000061 10183 20083 51016

More Conditions Fewer Conditions

Pressure 29.87 in
Visibility 10.0 miles
Clouds Clear
Dew Point 43 °F
Humidity 77%
Rainfall 0.11 in
Snow Depth Not available.
UV 0 out of 12
Pollen 3.00 out of 12
Air Quality Not available.
Flu Activity Sporadic
METAR KRKS 212354Z AUTO 29006KT 10SM CLR 10/06 A3001 RMK AO2 SLP115 60011 T01000061 10183 20083 51016

More Conditions Fewer Conditions

10-Day Weather Forecast

Almanac

Astronomy

Oct. 21, 2014 Rise Set
Actual Time 7:37 AM MDT 6:26 PM MDT
Civil Twilight 7:08 AM MDT 6:55 PM MDT
Nautical Twilight 6:36 AM MDT 7:27 PM MDT
Astronomical Twilight 6:03 AM MDT 8:00 PM MDT
Moon 5:22 AM MDT (10/21) 5:24 PM MDT (10/21)
Length of Visible Light 11h 46m
Length of Day
10h 49m
Tomorrow will be 2m 40s shorter.
Waning Crescent, 4% of the Moon is Illuminated
Today
Waning Crescent
Oct 23
New
Oct 30
First Quarter
Nov 6
Full
Nov 14
Last Quarter

Today's Extremes

State Highs State Lows

Community

WunderPhotos

Upload Photos

1,763,826 photos uploaded!

Nearby

Snow Depth

Station Depth Elevation
Big Sandy Opening 1 in 9080 ft
Hams Fork 0 in 7840 ft
Kelley R.S. 0 in 8180 ft
New Fork Lake 0 in 8340 ft
East Rim Divide 0 in 7930 ft

Earthquake Activity

City Distance Mag. Time & Date
No recent earthquake activity has been reported nearby.
Minimum magnitude displayed is 2.5.

Coastal Water Temperatures

Place Temperature
No Stations Reporting

Nearby Weather Stations